»·PEaware :: N80678 KMFR-KRDD

N80678 :: KMFR-KRDD

FLIGHT INFORMATION

Flight Status: Arrived
Operator: Privately registered:
United States
More flights under this callsign
Pilot: Isaac M. (22798)
Aircraft: CESSNA 172 SKYHAWK
(C172)
More flights by this aircraft type
Origin: KMFR Rogue Valley Intl-Medford
United States
Destination: KRDD Redding Mun
United States
More flights between these airports :: More routes between these airports
Route: KMFR KRDD
File this flight plan on PilotEdge
Remarks: KMFR KRDD
Altitude:
(Current/Filed)
9,000ft
Speed:
(Current/Filed)
115kts
Departed: 01-Jan-19 12:45 PM
Arrived: 01-Jan-19 02:06 PM
Distance/Time
Traveled:
115nm/1:21
Distance/Time
To Go:
Arrived

Flight Plot

Page will automatically refresh every two minutes.

Flight plan parsing failed; only flown route is shown


Map Options




Map Legend


Flown Route
Filed Route
Departure Airport
Arrival Airport
Navaid (VOR, NDB)
Fix

Horizontal Profiles

Position Reports

Time Latitude Longitude Heading Altitude Ground
Speed
01-Jan-19 12:41 42.380071 -122.878745 359 1337ft 5kts
01-Jan-19 12:42 42.382468 -122.879376 41 1337ft 10kts
01-Jan-19 12:43 42.385115 -122.880263 343 1337ft 18kts
01-Jan-19 12:44 42.377535 -122.874848 171 1631ft 77kts
01-Jan-19 12:45 42.355896 -122.871320 169 2802ft 70kts
01-Jan-19 12:46 42.332556 -122.865443 167 3636ft 99kts
01-Jan-19 12:47 42.304244 -122.857204 165 4498ft 104kts
01-Jan-19 12:48 42.279240 -122.849364 163 5497ft 97kts
01-Jan-19 12:49 42.255264 -122.841796 161 6470ft 83kts
01-Jan-19 12:50 42.232172 -122.834415 161 7197ft 94kts
01-Jan-19 12:51 42.204208 -122.825506 161 7922ft 112kts
01-Jan-19 12:52 42.172247 -122.815423 161 8522ft 123kts
01-Jan-19 12:53 42.139899 -122.805173 160 9024ft 127kts
01-Jan-19 12:54 42.104599 -122.794079 161 9041ft 132kts
01-Jan-19 12:55 42.068659 -122.782711 161 9055ft 133kts
01-Jan-19 12:56 42.032625 -122.771290 161 9071ft 133kts
01-Jan-19 12:57 41.996563 -122.759866 161 9087ft 133kts
01-Jan-19 12:58 41.960539 -122.748463 161 9105ft 133kts
01-Jan-19 12:59 41.924537 -122.737079 161 9125ft 133kts
01-Jan-19 13:00 41.888812 -122.725797 161 9133ft 133kts
01-Jan-19 13:02 41.852883 -122.714464 161 9117ft 133kts
01-Jan-19 13:03 41.816827 -122.703104 161 9102ft 133kts
01-Jan-19 13:04 41.780865 -122.691786 161 9088ft 133kts
01-Jan-19 13:05 41.744900 -122.680480 161 9075ft 133kts
01-Jan-19 13:06 41.708825 -122.669153 161 9064ft 133kts
01-Jan-19 13:07 41.672990 -122.657896 163 9056ft 132kts
01-Jan-19 13:08 41.637331 -122.646745 163 9050ft 131kts
01-Jan-19 13:09 41.601634 -122.635579 163 9046ft 131kts
01-Jan-19 13:10 41.565950 -122.624427 163 9042ft 131kts
01-Jan-19 13:11 41.530311 -122.613300 163 9040ft 131kts
01-Jan-19 13:12 41.494835 -122.602243 163 9076ft 129kts
01-Jan-19 13:13 41.459472 -122.591217 163 9077ft 131kts
01-Jan-19 13:14 41.423775 -122.580113 163 9079ft 131kts
01-Jan-19 13:15 41.387990 -122.568993 163 9092ft 132kts
01-Jan-19 13:16 41.352275 -122.557905 163 9089ft 132kts
01-Jan-19 13:17 41.316504 -122.546813 163 9094ft 132kts
01-Jan-19 13:18 41.280786 -122.535749 163 9100ft 132kts
01-Jan-19 13:19 41.245132 -122.524718 163 9107ft 132kts
01-Jan-19 13:20 41.209139 -122.513594 163 9115ft 132kts
01-Jan-19 13:21 41.173343 -122.501268 161 9125ft 133kts
01-Jan-19 13:21 41.144341 -122.488962 127 9132ft 126kts
01-Jan-19 13:23 41.157560 -122.457875 25 9145ft 93kts
01-Jan-19 13:23 41.176109 -122.443041 25 9155ft 93kts
01-Jan-19 13:25 41.173465 -122.412262 178 9151ft 135kts
01-Jan-19 13:25 41.142547 -122.416219 172 9161ft 135kts
01-Jan-19 13:27 41.098884 -122.409087 169 9171ft 136kts
01-Jan-19 13:27 41.067028 -122.403148 169 9057ft 140kts
01-Jan-19 13:28 41.029542 -122.396103 168 8772ft 134kts
01-Jan-19 13:29 40.992757 -122.389003 166 8498ft 132kts
01-Jan-19 13:30 40.956357 -122.380380 165 8197ft 135kts
01-Jan-19 13:31 40.919359 -122.373206 166 7929ft 134kts
01-Jan-19 13:32 40.883662 -122.366413 168 7652ft 134kts
01-Jan-19 13:33 40.844502 -122.359053 169 6809ft 146kts
01-Jan-19 13:34 40.806306 -122.351810 169 5635ft 131kts
01-Jan-19 13:35 40.770073 -122.345921 182 5627ft 134kts
01-Jan-19 13:36 40.728249 -122.348676 183 4497ft 174kts
01-Jan-19 13:37 40.686656 -122.350885 181 3971ft 137kts
01-Jan-19 13:38 40.648409 -122.353114 183 3966ft 138kts
01-Jan-19 13:39 40.610252 -122.355033 185 3947ft 136kts
01-Jan-19 13:40 40.572030 -122.356563 181 3928ft 138kts
01-Jan-19 13:41 40.533971 -122.358592 181 3917ft 137kts
01-Jan-19 13:42 40.495757 -122.360481 183 3915ft 136kts
01-Jan-19 13:43 40.457661 -122.361857 182 3920ft 137kts
01-Jan-19 13:44 40.419186 -122.363103 182 3927ft 138kts
01-Jan-19 13:45 40.380777 -122.364535 182 3950ft 138kts
01-Jan-19 13:46 40.342698 -122.366155 184 3961ft 137kts
01-Jan-19 13:47 40.304519 -122.367771 183 3964ft 137kts
01-Jan-19 13:48 40.265959 -122.369616 182 3771ft 146kts
01-Jan-19 13:49 40.224969 -122.372292 187 3428ft 140kts
01-Jan-19 13:50 40.191798 -122.370415 131 3421ft 132kts
01-Jan-19 13:51 40.176551 -122.330114 96 3422ft 110kts
01-Jan-19 13:52 40.180500 -122.297070 57 3423ft 97kts
01-Jan-19 13:53 40.202331 -122.283967 343 3417ft 103kts
01-Jan-19 13:54 40.230594 -122.290100 354 3414ft 103kts
01-Jan-19 13:55 40.259254 -122.292863 353 3411ft 102kts
01-Jan-19 13:56 40.287546 -122.294678 355 3413ft 109kts
01-Jan-19 13:57 40.319428 -122.295178 357 3411ft 117kts
01-Jan-19 13:58 40.343136 -122.295060 358 3407ft 91kts
01-Jan-19 13:59 40.368910 -122.295103 356 3094ft 127kts
01-Jan-19 14:00 40.396573 -122.295030 357 2581ft 132kts
01-Jan-19 14:01 40.433513 -122.294794 1 1864ft 135kts
01-Jan-19 14:02 40.458901 -122.294684 356 1357ft 64kts
01-Jan-19 14:03 40.484560 -122.294634 0 870ft 66kts
01-Jan-19 14:04 40.499205 -122.294319 348 610ft 65kts
01-Jan-19 14:05 40.508131 -122.295472 302 507ft 10kts
01-Jan-19 14:06 40.508135 -122.298044 95 507ft 0kts
01-Jan-19 14:07 40.508135 -122.298044 94 507ft 0kts

Navigation Log

Ident Type
Flight plan parsing failed, navigation log unavailable